臺北飛航情報區 - 掃描席(區管/近場)

METAR RCTP 182330Z 22008KT 6000 FEW012 BKN100 16/15 Q1021 NOSIG RMK A3017=

站台狀態:Online
最後更新:2019-01-19 07:30:02